Etusivu
METAR-TAF:

METAR-TAF

Lentoasemat :

Lynden Pindlingin kansainvälinen lentoasema

Nassau, Bahama

Leveyspiiri: 25-03N, Pituuspiiri: 077-28W, korkeus merenpinnasta: 3 m

Tämänhetkinen sää

Tämä raportti tehtiin 24 minuuttia sitten, kello 21.00 UTC
Tuuli 16 kn idästä/kaakosta
Lämpötila 28°C
Kosteus 79%
Ilmanpaine 1018 hPa
Näkyvyys 10 km tai enemmän
Hajonneita pilviä 2200 ft:n korkeudessa
Hajanaisia pilviä 8000 ft:n korkeudessa
Hajonneita pilviä 20000 ft:n korkeudessa

METAR: MYNN 202100Z 12016KT 9999 BKN022 SCT080 BKN200 28/24 A3006 RMK PKWND 23KT

Aika: 17:24 (21:24 UTC)

Sääennuste

Tämä raportti tehtiin 4 tuntia ja 24 minuuttia sitten, kello 17.00 UTC
Ennuste voimassa 20. päivästä klo 18 UTC - 21. päivään klo 18 UTC
Tuuli 18 kn etelästä/kaakosta
Näkyvyys 10 km tai enemmän
Muutamia pilviä 2200 ft:n korkeudessa
Hajanaisia pilviä 3000 ft:n korkeudessa
Hajonneita pilviä 20000 ft:n korkeudessa

TAF: MYNN 201700Z 2018/2118 15018KT 9999 FEW022 SCT030 BKN200

Säähavainnot ja -ennusteet yli 4000 lentoasemalta (METAR- ja TAF-raportit).

Käytössä olevat sääasemat on merkitty karttaan keltaisilla ja punaisilla pisteillä.

Aseta hiiri pisteen päälle nähdäksesi sääaseman nimen.

Klikkaa sitten nähdäksesi säähavainnot ja -ennusteet.

Kartan vaihtaminen: klikkaa mustalla rastilla varustettuja vihreitä pisteitä, niin voit zoomata sisään; viivalla varustettua vihreää pistettä, niin voit zoomata ulos tai vihreitä nuolia, niin pääset viereisille kartoille.


METAR-TAF: